logo
App data

Not Dying Today

Not dying today is a 2D side-scrolling action game. In 2030, the world has been taken over by zombies. With fire and blade, bullets and guns, you, captain Aiden, will do anything to protect the last human kind, anything, even turn into a zombie, using zombie power to kill zombies.
Store | Hub | SteamDB
Developer: 9TH.ART Publisher: Forever Entertainment S. A.
Genre: Action, Adventure, Casual, Indie
Languages: English
Tags: Action (39), Violent (25), Gore (25), Indie (25), Casual (23), Adventure (22), Beat 'em up (15), Local Co-Op (8), Zombies (5)
Category: Single-player, Local Multi-Player, Local Co-op, Shared/Split Screen, Steam Achievements, Full controller support, Steam Trading Cards, Steam Cloud
Release date: Jan 13, 2017
Price: $9.99
Score rank: 48% Userscore: 78% Old userscore: 79%
Owners: 0 .. 20,000
Followers: 643
Peak concurrent players yesterday: 3
YouTube stats: 3 views and 1 comments for videos uploaded last week, 0 new videos uploaded yesterday.
Playtime total: 02:50 (average) 02:55 (median)

Steam Spy is still in beta, so expect major bugs.

Owners data:

Access restricted.

This feature is only available to users with special access rights. Sorry.

If you want to proceed, you need to register or log in first and then back Steam Spy on Patreon. Look for Indie or Pro pledge.

Don't forget to use the same email as on Steam Spy!

Audience in 2 weeks:

Access restricted.

This feature is only available to users with special access rights. Sorry.

If you want to proceed, you need to register or log in first and then back Steam Spy on Patreon. Look for Indie or Pro pledge.

Don't forget to use the same email as on Steam Spy!

Peak daily concurrent players:

CCU data courtesy of SteamDB. Used with permission.

Hourly concurrent players:

Daily Twitch stats:

Hourly Twitch stats:

YouTube:

The views data is based on top 50 videos uploaded last week. Actual number of views might be more than the number shown.

The displayed number of videos uploaded yesterday is limited to 50, so if there were more videos uploaded, the number will still show 50.

If the game has commonly used word as its name (like "FEAR" or "Volume") its number of Youtube views might be wrong.

Games similar to this one:

# Game Release date
Price
Score rank
(Userscore / Metascore)
Owners
Players
Playtime (Median)
1 Aaero Apr 11, 2017 $14.9993% (95%)0 .. 20,0000%00:00 (00:00)
2 Star Trek: Judgment Rites May 8, 2015 $9.99N/A (N/A)0 .. 20,0000%00:00 (00:00)
3 Adventure in the Tower of Flight Dec 23, 2015 $4.9990% (94%)0 .. 20,0000%00:00 (00:00)
4 Knightmare Tower Jun 16, 2014 $3.9984% (92%)0 .. 20,0000%00:00 (00:00)
5 Counter Spell Oct 5, 2015 $9.9984% (92%)0 .. 20,0000%00:00 (00:00)
6 Star Trek : 25th Anniversary May 7, 2015 $9.9980% (91%)0 .. 20,0000%00:00 (00:00)
7 Fractured Soul Feb 5, 2015 $9.99N/A (N/A)0 .. 20,0000%00:00 (00:00)
8 Hyphen Feb 12, 2015 N/AN/A (N/A)0 .. 20,0000%00:00 (00:00)
9 Conga Master Sep 14, 2016 $9.99N/A (N/A)0 .. 20,0000%00:00 (00:00)
10 Neighborhorde Jun 5, 2017 $4.99N/A (N/A)0 .. 20,0000%00:00 (00:00)
11 Hero of Many Sep 15, 2014 $6.9972% (88%)20,000 .. 50,0000%00:00 (00:00)
12 Knight Squad Nov 16, 2015 $14.9969% (87%)50,000 .. 100,0000%00:00 (00:00)
13 Super Rad Raygun Nov 15, 2016 $4.99N/A (N/A/64%)0 .. 20,0000%00:00 (00:00)
14 Asura: Vengeance Expansion Apr 13, 2017 $9.9966% (86%)20,000 .. 50,0000%00:00 (00:00)
15 Disney's Chicken Little Feb 24, 2015 $9.9966% (86%)0 .. 20,0000%00:00 (00:00)
16 N2O: Nitrous Oxide Jun 29, 2015 $4.99N/A (N/A)0 .. 20,0000%00:00 (00:00)
17 Azure Striker Gunvolt Aug 28, 2015 $14.9964% (85%)20,000 .. 50,0001.92%01:25 (00:28)
18 Vintage Year Jan 2, 2015 $2.9964% (85%)20,000 .. 50,0000%00:00 (00:00)
19 Isbarah Feb 25, 2015 $13.99N/A (N/A)20,000 .. 50,0000%00:00 (00:00)
20 Nongünz May 19, 2017 $6.9961% (84%)100,000 .. 200,0000.34%00:20 (00:06)
21 Ittle Dew 2 Nov 15, 2016 $19.9959% (83%)0 .. 20,0000%00:00 (00:00)
22 Fighties Jul 13, 2015 $4.9956% (82%)0 .. 20,0000%00:00 (00:00)
23 Rosenkreuzstilette Feb 2, 2017 $9.9954% (81%)0 .. 20,0000%00:00 (00:00)
24 LocoCycle Feb 14, 2014 $9.9952% (80%)0 .. 20,0000%00:00 (00:00)
25 Airport Madness: World Edition May 28, 2015 $9.9949% (79%)20,000 .. 50,0000%00:00 (00:00)
26 Blue Effect VR Feb 8, 2017 $14.9948% (78%)0 .. 20,00022.22%01:13 (00:48)
27 Age of Barbarian Extended Cut Jun 3, 2016 $7.7948% (78%)0 .. 20,00012.5%00:26 (00:08)
28 Dyna Bomb May 13, 2016 $4.99N/A (N/A)0 .. 20,0000%00:00 (00:00)
29 Klang Sep 22, 2016 $3.7448% (78%/71%)0 .. 20,0000%00:00 (00:00)
30 Left Alone Apr 28, 2016 $6.9948% (78%)0 .. 20,00010%01:44 (00:34)
31 Starchaser: Priestess of the Night Sky Jul 24, 2015 $9.99N/A (N/A)0 .. 20,0000%00:00 (00:00)
32 Zero Reflex : Black Eye Edition Nov 4, 2015 $3.9942% (75%)20,000 .. 50,0000%00:00 (00:00)
33 After The End: The Harvest Jun 2, 2017 $4.9942% (75%)20,000 .. 50,0000%00:00 (00:00)
34 Aeon May 22, 2017 $19.9938% (73%)0 .. 20,00011.11%00:16 (00:05)
35 BoxesWithGuns Apr 14, 2015 $1.9937% (72%)20,000 .. 50,0000%00:00 (00:00)
36 ABRACA - Imagic Games Mar 31, 2016 $14.99N/A (N/A)0 .. 20,0000%00:00 (00:00)
37 SAMURAI WARRIORS: Spirit of Sanada May 23, 2017 $49.9937% (72%)0 .. 20,0000%00:00 (00:00)
38 Planet of Mubu Apr 1, 2017 $5.9935% (71%)0 .. 20,0000%00:00 (00:00)
39 The Girl and the Robot Aug 17, 2016 $9.9933% (70%)0 .. 20,0000%00:00 (00:00)
40 Spud's Quest Jul 31, 2014 $7.99N/A (N/A)0 .. 20,0000%00:00 (00:00)
41 Assault Suit Leynos Aug 30, 2016 $19.9927% (66%)0 .. 20,0000%00:00 (00:00)
42 Dystopy Feb 28, 2017 FreeN/A (N/A)0 .. 20,0000%00:00 (00:00)
43 Phantaruk Aug 16, 2016 $4.9927% (66%/53%)20,000 .. 50,0000%00:00 (00:00)
44 Disney Alice in Wonderland Oct 6, 2014 $19.9926% (65%/63%)0 .. 20,0003.57%00:01 (00:00)
45 BIOS Dec 13, 2016 $14.9926% (65%)0 .. 20,0000%00:00 (00:00)
46 Tank Brawl Apr 20, 2016 $4.99N/A (N/A)0 .. 20,0000%00:00 (00:00)
47 Demon's Crystals Apr 21, 2016 $4.99N/A (N/A)0 .. 20,0000%00:00 (00:00)
48 Alpha Zylon Jul 15, 2014 $4.9923% (63%)0 .. 20,0000%00:00 (00:00)
49 Toxic Bunny HD Jul 18, 2014 $5.99N/A (N/A)0 .. 20,0000%00:00 (00:00)
50 Pixel-Warfare: Pro Sep 20, 2016 $0.9921% (61%)50,000 .. 100,0000%00:00 (00:00)
51 Bombshell Jan 29, 2016 $34.9921% (61%/43%)20,000 .. 50,0000%00:00 (00:00)
52 Hybrid Wars Sep 29, 2016 $6.9920% (60%/54%)0 .. 20,0000%00:00 (00:00)
53 Fowl Space Mar 21, 2012 $4.9919% (59%)20,000 .. 50,0000%00:00 (00:00)
54 Disney Tangled Oct 6, 2014 $19.99N/A (N/A)0 .. 20,0000%00:00 (00:00)
55 The Curse of Nordic Cove Apr 23, 2015 $0.99N/A (N/A)0 .. 20,0000%00:00 (00:00)
56 Shadowcrypt Sep 15, 2014 $4.9916% (56%)0 .. 20,0000%00:00 (00:00)
57 #KILLALLZOMBIES Aug 10, 2016 $4.9916% (56%)20,000 .. 50,0000%00:00 (00:00)
58 Scooby Doo! & Looney Tunes Cartoon Universe: Adventure Jul 16, 2014 $19.99N/A (N/A)0 .. 20,0000%00:00 (00:00)
59 Disney•Pixar Cars 2: The Video Game Oct 6, 2014 $19.9911% (49%)0 .. 20,0004.55%00:43 (00:14)
60 Blasting Agent: Ultimate Edition Aug 17, 2016 $2.99N/A (N/A)0 .. 20,0000%00:00 (00:00)
61 Lost Sea Jul 5, 2016 $14.998% (44%)0 .. 20,0000%00:00 (00:00)
62 Plancon: Space Conflict Aug 8, 2016 $6.998% (44%)20,000 .. 50,0000%00:00 (00:00)
63 Disney Fairies: Tinker Bell's Adventure Oct 6, 2014 $19.99N/A (N/A)0 .. 20,0000%00:00 (00:00)
64 Kick-Ass 2 Aug 15, 2014 $19.994% (33%)20,000 .. 50,0000%00:00 (00:00)
65 Masterspace Jun 15, 2015 $7.993% (28%)0 .. 20,0000%00:00 (00:00)
66 Monster Challenge Circus May 15, 2014 $4.99N/A (N/A)0 .. 20,0000%00:00 (00:00)
67 Deer Hunt Legends Jan 16, 2015 $4.99N/A (N/A)20,000 .. 50,0000%00:00 (00:00)

Tags over time:

Access restricted.

This feature is only available to users with special access rights. Sorry.

If you want to proceed, you need to register or log in first and then back Steam Spy on Patreon. Look for Indie or Pro pledge.

Don't forget to use the same email as on Steam Spy!

Owners of this game also own:

Access restricted.

This feature is only available to users with special access rights. Sorry.

If you want to proceed, you need to register or log in first and then back Steam Spy on Patreon. Look for Indie or Pro pledge.

Don't forget to use the same email as on Steam Spy!

Playtime distribution:

Access restricted.

This feature is only available to users with special access rights. Sorry.

If you want to proceed, you need to register or log in first and then back Steam Spy on Patreon. Look for Indie or Pro pledge.

Don't forget to use the same email as on Steam Spy!

Playtime (2 weeks):

Access restricted.

This feature is only available to users with special access rights. Sorry.

If you want to proceed, you need to register or log in first and then back Steam Spy on Patreon. Look for Indie or Pro pledge.

Don't forget to use the same email as on Steam Spy!

User reviews:

Login required.

Please register or log in to see this information.